Mebane, NC (27302)

5:00 PM EST on December 03, 2016 (GMT -0500)
Forest Ridge | | Change Station

Elev 630 ft 36.11 °N, 79.27 °W | Updated 2 seconds ago

Clear
Clear
46.6 °F
Feels Like 47 °F
N
0.0
Wind Variable Wind from ENE
Gusts 1.0 mph

Today
High -- | Low -- °F
--% Chance of Precip.
Yesterday
High -- | Low -- °F
Precip. -- in
Pressure 30.24 in
Visibility 10.0 miles
Clouds Clear
Windchill 47 °F
Dew Point 31 °F
Humidity 54%
Rainfall 0.00 in
Snow Depth Not available.
7:11 AM 5:02 PM
Waxing Crescent, 17% visible
METAR KBUY 032154Z AUTO 34003KT 10SM CLR 09/M03 A3023 RMK AO2 SLP238 T00891028
Pressure 30.24 in
Visibility 10.0 miles
Clouds Clear
Windchill 47 °F
Dew Point 31 °F
Humidity 54%
Rainfall 0.00 in
Snow Depth Not available.
7:11 AM 5:02 PM
Waxing Crescent, 17% visible
METAR KBUY 032154Z AUTO 34003KT 10SM CLR 09/M03 A3023 RMK AO2 SLP238 T00891028

10-Day Weather Forecast

Almanac

Astronomy

Dec. 03, 2016 Rise Set
Actual Time
Civil Twilight
Nautical Twilight
Astronomical Twilight
Moon
Length of Visible Light
Length of Day
Tomorrow will be .
, % of the Moon is Illuminated

Today's Extremes

State Highs State Lows

Community

WunderPhotos

Upload Photos

1,955,506 photos uploaded!

WunderBlog® & News

Nearby

Air Quality

  Air Quality AQ Index Pollutant
Not available.

Snow Depth

Station Depth Elevation

Earthquake Activity

City Distance Mag. Time & Date
Minimum magnitude displayed is 2.5.

Coastal Water Temperatures

Place Temperature

Stations

Nearby Weather Stations

Station Location Temp. Windchill Dew Point Humidity Wind Precip. Elev Updated Type
                   

Watches & Warnings

There are currently no watches in effect.